LFCK/DCM METAR and TAF weather

Enter ICAO airport designator
Station Type Date Time Source
LFCK METAR 2021/01/16 03:00 UTC NOAA

LFCK 160300Z AUTO 30006KT 8000 BKN012 00/M01 Q1029


Station Type Date Time Source
LFCK Decoded METAR 2021/01/16 03:00 UTC NOAA

Station name not available
Jan 15, 2021 - 10:00 PM EST / 2021.01.16 0300 UTC
Wind: from the WNW (300 degrees) at 7 MPH (6 KT):0
Visibility: 4 mile(s):0
Sky conditions: mostly cloudy
Temperature: 32 F (0 C)
Windchill: 24 F (-4 C):1
Dew Point: 30 F (-1 C)
Relative Humidity: 92%
Pressure (altimeter): 30.39 in. Hg (1029 hPa)
ob: LFCK 160300Z AUTO 30006KT 8000 BKN012 00/M01 Q1029
cycle: 3

Station Type Date Time Source
LFCK TAF UTC NOAA

Error!

Example: see airport list